Time;durP1;ratioP1;P1;durP2;ratioP2;P2;SDS_P1;SDS_P2;PMS_P1;PMS_P2;Temp;Humidity;BMP_temperature;BMP_pressure;BME280_temperature;BME280_humidity;BME280_pressure;Samples;Min_cycle;Max_cycle;Signal;HPM_P1;HPM_P2
2022/05/03 00:01:22;;;;;;;8.80;3.92;;;;;;;8.64;56.10;99477.44;5039336;28;19917;-80
2022/05/03 00:04:39;;;;;;;7.20;3.72;;;;;;;8.61;56.18;99465.38;5025887;28;20041;-78
2022/05/03 00:07:28;;;;;;;5.18;3.85;;;;;;;8.56;56.19;99461.94;5013748;28;20048;-79
2022/05/03 00:10:00;;;;;;;6.90;4.60;;;;;;;8.54;56.59;99461.97;5038339;28;20056;-80
2022/05/03 00:12:48;;;;;;;7.22;4.57;;;;;;;8.52;56.67;99460.22;5037447;28;20033;-81
2022/05/03 00:15:16;;;;;;;6.97;4.40;;;;;;;8.52;56.88;99460.22;5021278;28;20045;-79
2022/05/03 00:17:43;;;;;;;5.95;4.15;;;;;;;8.48;56.77;99455.94;5026637;28;20639;-82
2022/05/03 00:20:10;;;;;;;8.15;4.32;;;;;;;8.36;56.87;99442.16;5040096;28;20052;-78
2022/05/03 00:22:36;;;;;;;8.70;4.30;;;;;;;8.23;57.17;99422.34;5020928;28;20098;-79
2022/05/03 00:25:03;;;;;;;8.30;4.88;;;;;;;8.25;57.40;99442.19;5021016;28;20040;-78
2022/05/03 00:27:29;;;;;;;8.80;4.50;;;;;;;8.32;57.31;99450.81;5021307;28;20082;-81
2022/05/03 00:29:57;;;;;;;8.40;5.28;;;;;;;8.12;57.35;99428.44;5039254;28;20048;-80
2022/05/03 00:32:26;;;;;;;9.50;4.85;;;;;;;7.89;57.76;99401.78;5021500;28;20092;-78
2022/05/03 00:34:53;;;;;;;7.75;4.70;;;;;;;7.91;58.04;99406.09;5020823;28;20075;-82
2022/05/03 00:37:19;;;;;;;8.15;4.85;;;;;;;8.15;58.27;99453.50;5038737;28;20044;-77
2022/05/03 00:39:45;;;;;;;9.88;5.25;;;;;;;7.98;58.36;99422.47;5018642;28;20314;-79
2022/05/03 00:42:29;;;;;;;9.63;4.88;;;;;;;8.13;58.33;99450.91;5020520;28;20451;-81
2022/05/03 00:45:24;;;;;;;7.20;4.75;;;;;;;8.11;58.70;99442.25;5058552;28;20059;-78
2022/05/03 00:47:51;;;;;;;10.73;5.10;;;;;;;8.11;58.92;99431.06;5030466;28;20170;-81
2022/05/03 00:50:37;;;;;;;6.95;4.82;;;;;;;8.02;58.70;99415.53;5028738;28;20072;-80
2022/05/03 00:53:06;;;;;;;8.10;4.68;;;;;;;8.06;59.03;99427.63;5005449;28;20110;-79
2022/05/03 00:55:53;;;;;;;7.93;4.72;;;;;;;8.04;59.32;99429.34;5021282;28;20041;-78
2022/05/03 00:58:19;;;;;;;6.63;4.78;;;;;;;7.94;59.33;99408.69;5039798;28;20040;-81
2022/05/03 01:01:04;;;;;;;8.20;4.88;;;;;;;8.02;59.81;99423.31;5037506;28;20223;-80
2022/05/03 01:03:58;;;;;;;7.57;4.47;;;;;;;7.99;59.77;99425.03;5021585;28;20075;-81
2022/05/03 01:06:49;;;;;;;8.10;4.88;;;;;;;7.96;60.11;99425.06;5039982;28;20068;-81
2022/05/03 01:09:20;;;;;;;7.32;5.25;;;;;;;7.81;59.92;99405.28;5006691;28;20060;-78
2022/05/03 01:12:07;;;;;;;8.02;5.10;;;;;;;7.94;60.03;99426.81;5042042;28;20139;-78
2022/05/03 01:14:42;;;;;;;7.00;4.50;;;;;;;7.94;60.56;99418.16;5038996;28;20044;-80
2022/05/03 01:17:40;;;;;;;8.02;5.00;;;;;;;7.74;60.67;99387.16;5009813;28;20068;-81
2022/05/03 01:20:08;;;;;;;10.68;5.20;;;;;;;7.75;60.55;99394.94;5016860;28;20123;-81
2022/05/03 01:23:13;;;;;;;8.48;5.10;;;;;;;7.86;60.78;99409.56;5021092;28;20397;-83
2022/05/03 01:25:43;;;;;;;8.25;4.75;;;;;;;7.82;60.87;99409.59;5006496;28;20168;-80
2022/05/03 01:28:34;;;;;;;7.35;5.32;;;;;;;7.81;61.14;99401.81;5019303;28;20048;-82
2022/05/03 01:31:11;;;;;;;12.13;5.30;;;;;;;7.73;61.61;99380.25;5037278;28;20060;-79
2022/05/03 01:33:39;;;;;;;12.73;5.00;;;;;;;7.79;61.82;99394.06;5018689;28;20361;-82
2022/05/03 01:36:07;;;;;;;8.85;5.70;;;;;;;7.79;61.83;99396.66;5020184;28;20044;-81
2022/05/03 01:38:46;;;;;;;8.88;5.18;;;;;;;7.77;62.05;99390.59;5040496;28;20037;-78
2022/05/03 01:41:28;;;;;;;9.20;5.30;;;;;;;7.69;62.12;99387.16;5021491;28;20072;-79
2022/05/03 01:44:15;;;;;;;8.98;5.00;;;;;;;7.68;61.84;99390.63;5021791;28;20171;-79
2022/05/03 01:46:41;;;;;;;7.75;5.20;;;;;;;7.55;62.19;99366.50;5007978;28;20037;-79
2022/05/03 01:52:40;;;;;;;8.00;5.10;;;;;;;7.63;62.07;99385.47;5039751;28;20628;-81
2022/05/03 01:55:05;;;;;;;11.02;5.57;;;;;;;7.62;62.38;99388.03;5025097;28;20048;-80
2022/05/03 01:58:03;;;;;;;8.15;5.35;;;;;;;7.54;62.53;99370.84;4991700;28;20045;-81
2022/05/03 02:00:34;;;;;;;8.00;5.65;;;;;;;7.60;62.45;99390.66;5019797;28;20094;-81
2022/05/03 02:03:00;;;;;;;9.45;5.28;;;;;;;7.62;62.99;99391.50;5037196;28;20076;-80
2022/05/03 02:06:04;;;;;;;8.57;5.60;;;;;;;7.62;62.53;99385.47;5035834;28;20563;-79
2022/05/03 02:09:03;;;;;;;8.60;5.70;;;;;;;7.62;62.57;99388.03;5038796;28;20033;-81
2022/05/03 02:11:32;;;;;;;9.43;6.18;;;;;;;7.62;62.52;99390.63;5025951;28;20279;-79
2022/05/03 02:17:03;;;;;;;9.02;6.53;;;;;;;7.67;62.92;99387.19;5039659;28;20045;-79
2022/05/03 02:19:41;;;;;;;9.38;5.85;;;;;;;7.67;63.07;99384.59;5038790;28;20049;-78
2022/05/03 02:22:29;;;;;;;10.32;6.05;;;;;;;7.71;62.99;99389.78;5039888;28;20078;-80
2022/05/03 02:25:14;;;;;;;10.35;6.57;;;;;;;7.53;63.57;99355.28;5039993;28;20464;-79
2022/05/03 02:27:48;;;;;;;8.02;5.68;;;;;;;7.61;63.39;99358.72;5026490;28;20037;-80
2022/05/03 02:30:18;;;;;;;9.38;6.03;;;;;;;7.68;63.19;99370.78;5024244;28;20099;-80
2022/05/03 02:33:13;;;;;;;11.68;5.80;;;;;;;7.81;63.47;99378.50;5043029;28;20773;-80
2022/05/03 02:35:44;;;;;;;8.30;5.63;;;;;;;7.80;63.91;99364.69;5024326;28;20055;-81
2022/05/03 02:38:17;;;;;;;13.35;6.40;;;;;;;7.83;63.44;99348.25;5023788;28;20783;-81
2022/05/03 02:40:45;;;;;;;8.70;5.75;;;;;;;7.84;63.44;99339.63;5023058;28;20033;-80
2022/05/03 02:43:16;;;;;;;8.20;5.90;;;;;;;7.98;63.32;99342.16;5021513;28;20151;-82
2022/05/03 02:45:53;;;;;;;7.55;5.55;;;;;;;8.14;63.58;99355.88;5039720;28;20484;-81
2022/05/03 02:48:38;;;;;;;10.55;6.00;;;;;;;8.28;63.16;99355.78;5010495;28;20047;-82
2022/05/03 02:51:07;;;;;;;8.20;5.97;;;;;;;8.44;63.21;99361.72;5022793;28;20047;-77
2022/05/03 02:54:00;;;;;;;8.27;6.55;;;;;;;8.52;63.03;99354.78;5004810;28;20365;-79
2022/05/03 02:56:51;;;;;;;11.05;7.80;;;;;;;8.48;62.97;99327.16;5037941;28;20995;-81
2022/05/03 03:02:35;;;;;;;11.07;7.82;;;;;;;8.83;62.89;99353.66;5040502;28;20419;-81
2022/05/03 03:05:09;;;;;;;10.95;7.72;;;;;;;8.82;62.71;99344.16;5039807;28;20065;-79
2022/05/03 03:07:44;;;;;;;10.20;6.93;;;;;;;8.87;62.62;99340.66;5026986;28;20560;-80
2022/05/03 03:10:19;;;;;;;8.93;7.18;;;;;;;8.92;62.33;99334.56;5003892;28;20059;-80
2022/05/03 03:13:00;;;;;;;15.88;7.00;;;;;;;9.04;62.44;99348.28;5024974;28;20492;-82
2022/05/03 03:15:28;;;;;;;10.20;6.63;;;;;;;9.09;62.32;99344.78;5039383;28;20056;-83
2022/05/03 03:17:57;;;;;;;9.77;6.90;;;;;;;8.97;61.85;99314.63;5042160;28;20045;-80
2022/05/03 03:20:25;;;;;;;7.18;6.30;;;;;;;8.95;62.26;99296.44;5027714;28;20044;-79
2022/05/03 03:22:51;;;;;;;9.20;6.55;;;;;;;9.31;62.50;99345.41;5041114;28;20131;-79
2022/05/03 03:25:22;;;;;;;9.00;6.35;;;;;;;9.34;61.90;99319.41;5014939;28;20116;-80
2022/05/03 03:27:52;;;;;;;6.68;5.68;;;;;;;9.56;61.83;99332.13;5032958;28;20052;-81
2022/05/03 03:30:19;;;;;;;7.50;5.80;;;;;;;9.68;61.60;99313.81;5010244;28;20037;-81
2022/05/03 03:32:47;;;;;;;7.43;5.43;;;;;;;9.86;61.36;99324.84;5042712;28;20094;-79
2022/05/03 03:35:15;;;;;;;11.55;5.90;;;;;;;9.89;61.17;99323.03;5038827;28;20095;-82
2022/05/03 03:37:49;;;;;;;6.85;5.38;;;;;;;9.97;60.73;99322.09;5041444;28;20139;-79
2022/05/03 03:40:17;;;;;;;6.25;5.30;;;;;;;10.07;60.47;99310.66;5039694;28;20139;-80
2022/05/03 03:42:45;;;;;;;8.25;5.40;;;;;;;10.15;60.35;99319.22;5022567;28;20136;-81
2022/05/03 03:45:15;;;;;;;6.85;5.10;;;;;;;10.13;60.86;99288.94;5004388;28;20114;-81
2022/05/03 03:47:43;;;;;;;9.95;5.13;;;;;;;10.30;60.46;99294.72;5022325;28;20044;-80
2022/05/03 03:50:10;;;;;;;8.65;5.13;;;;;;;10.60;60.19;99331.56;5021341;28;20095;-79
2022/05/03 03:52:39;;;;;;;9.68;4.93;;;;;;;10.83;59.83;99323.38;5038399;28;20485;-83
2022/05/03 03:55:07;;;;;;;7.78;5.80;;;;;;;11.08;59.58;99307.31;5026353;28;20051;-79
2022/05/03 03:57:35;;;;;;;8.02;4.45;;;;;;;11.30;58.83;99299.91;5021485;28;20036;-78
2022/05/03 04:00:05;;;;;;;7.30;4.70;;;;;;;11.51;58.38;99295.16;5027596;28;20160;-78
2022/05/03 04:02:40;;;;;;;6.60;5.68;;;;;;;11.41;57.99;99273.66;5038810;28;20041;-78
2022/05/03 04:05:12;;;;;;;8.45;4.78;;;;;;;11.37;57.47;99264.19;5038650;28;20842;-79
2022/05/03 04:07:38;;;;;;;11.25;5.22;;;;;;;11.41;57.87;99258.03;5022820;28;20540;-80
2022/05/03 04:10:04;;;;;;;6.50;4.72;;;;;;;11.72;57.41;99298.19;5027473;28;20045;-78
2022/05/03 04:12:31;;;;;;;9.75;5.20;;;;;;;11.57;57.11;99257.72;5025379;28;20052;-82
2022/05/03 04:14:57;;;;;;;6.47;5.00;;;;;;;11.77;56.70;99285.94;5048937;28;20075;-79
2022/05/03 04:17:24;;;;;;;9.27;4.65;;;;;;;11.82;56.66;99298.84;5015319;28;20055;-81
2022/05/03 04:19:50;;;;;;;9.63;5.25;;;;;;;11.80;56.62;99292.84;5040134;28;20065;-83
2022/05/03 04:22:33;;;;;;;9.93;6.75;;;;;;;11.91;56.46;99288.25;5045150;28;20091;-81
2022/05/03 04:25:00;;;;;;;8.40;4.85;;;;;;;12.11;56.21;99274.78;5021342;28;20427;-81
2022/05/03 04:27:27;;;;;;;9.38;4.80;;;;;;;12.04;55.94;99262.78;5023339;28;21454;-80
2022/05/03 04:29:53;;;;;;;10.80;4.60;;;;;;;12.25;56.02;99284.03;5006373;28;20041;-79
2022/05/03 04:32:20;;;;;;;7.13;4.95;;;;;;;12.35;55.66;99265.50;5038907;28;20060;-79
2022/05/03 04:34:47;;;;;;;6.65;4.88;;;;;;;12.40;55.26;99254.94;5039121;28;20045;-79
2022/05/03 04:37:14;;;;;;;7.50;4.40;;;;;;;12.84;55.16;99267.75;5038787;28;20518;-79
2022/05/03 04:39:41;;;;;;;6.72;5.13;;;;;;;13.11;54.55;99273.13;5022005;28;20051;-80
2022/05/03 04:42:07;;;;;;;6.43;4.82;;;;;;;13.13;53.93;99271.31;5010848;28;20155;-79
2022/05/03 04:44:34;;;;;;;8.05;4.80;;;;;;;13.05;53.74;99257.63;5039576;28;20052;-81
2022/05/03 04:46:59;;;;;;;8.55;4.50;;;;;;;12.84;53.68;99225.97;5021693;28;20127;-78
2022/05/03 04:49:25;;;;;;;6.85;4.45;;;;;;;13.02;53.82;99268.16;5023076;28;20044;-80
2022/05/03 04:51:56;;;;;;;8.43;4.57;;;;;;;12.53;54.03;99192.84;5017638;28;20104;-81
2022/05/03 04:54:23;;;;;;;7.07;4.93;;;;;;;13.25;54.03;99275.34;5050607;28;20123;-80
2022/05/03 04:56:56;;;;;;;7.45;4.68;;;;;;;13.32;53.26;99210.72;5033412;28;20412;-82
2022/05/03 04:59:22;;;;;;;9.18;5.05;;;;;;;13.14;52.46;99145.03;5056958;28;20048;-83
2022/05/03 05:01:48;;;;;;;10.65;5.18;;;;;;;13.40;52.13;99195.66;5024073;28;20094;-84
2022/05/03 05:04:17;;;;;;;12.18;5.00;;;;;;;14.10;52.58;99264.16;5065610;28;20032;-83
2022/05/03 05:06:43;;;;;;;11.07;4.10;;;;;;;14.02;52.14;99144.06;5055114;28;20063;-80
2022/05/03 05:09:10;;;;;;;9.65;4.78;;;;;;;14.65;51.08;99203.00;5051238;28;20045;-81
2022/05/03 05:11:38;;;;;;;6.80;4.90;;;;;;;14.62;50.13;99180.41;5039959;28;20040;-81
2022/05/03 05:14:06;;;;;;;5.47;4.40;;;;;;;14.58;49.74;99197.97;5050034;28;20052;-80
2022/05/03 05:16:32;;;;;;;6.70;4.70;;;;;;;14.46;49.92;99131.19;5030752;28;20095;-82
2022/05/03 05:18:58;;;;;;;8.52;4.60;;;;;;;15.43;49.36;99206.31;5050598;28;20048;-82
2022/05/03 05:21:24;;;;;;;5.70;4.20;;;;;;;16.14;48.63;99244.66;5013447;28;20037;-81
2022/05/03 05:23:50;;;;;;;12.38;4.13;;;;;;;16.64;47.75;99232.97;5023522;28;20033;-81
2022/05/03 05:26:16;;;;;;;6.55;4.30;;;;;;;17.15;46.42;99217.63;5056850;28;20097;-79
2022/05/03 05:28:42;;;;;;;6.03;4.03;;;;;;;16.69;45.98;99152.19;5042704;28;20554;-82
2022/05/03 05:31:08;;;;;;;7.60;3.85;;;;;;;16.83;45.12;99170.84;5028902;28;20065;-83
2022/05/03 05:34:05;;;;;;;8.73;4.15;;;;;;;16.59;44.81;99135.97;5046102;28;20048;-82
2022/05/03 05:39:50;;;;;;;7.80;4.20;;;;;;;16.32;44.46;99144.16;5030277;28;20091;-83
2022/05/03 05:42:45;;;;;;;5.15;4.63;;;;;;;15.16;45.43;99026.50;5024855;28;20069;-81
2022/05/03 05:45:12;;;;;;;7.80;3.60;;;;;;;16.55;45.75;99208.81;5030012;28;20512;-82
2022/05/03 05:47:45;;;;;;;4.75;3.92;;;;;;;16.74;44.87;99157.25;5045124;28;20045;-82
2022/05/03 05:50:12;;;;;;;5.75;4.18;;;;;;;16.86;44.45;99172.47;5030432;28;20148;-84
2022/05/03 05:55:28;;;;;;;5.38;4.35;;;;;;;16.58;44.34;99215.69;5039079;28;20045;-83
2022/05/03 05:57:54;;;;;;;7.03;4.30;;;;;;;15.91;44.71;99147.63;5027189;28;20056;-83
2022/05/03 06:00:23;;;;;;;8.55;4.05;;;;;;;15.79;45.13;99161.19;5045223;28;20040;-82
2022/05/03 06:02:49;;;;;;;8.43;4.97;;;;;;;15.81;45.66;99154.09;5027320;28;20046;-86
2022/05/03 06:05:15;;;;;;;8.23;4.03;;;;;;;17.55;45.11;99131.63;5025053;28;20043;-82
2022/05/03 06:07:41;;;;;;;4.50;3.85;;;;;;;19.35;41.58;99166.38;5012687;28;20484;-82
2022/05/03 06:10:08;;;;;;;5.38;4.10;;;;;;;21.16;39.52;99173.47;5029528;28;20736;-84
2022/05/03 06:12:38;;;;;;;5.57;4.13;;;;;;;22.81;37.65;99129.97;5031676;28;20044;-80
2022/05/03 06:15:05;;;;;;;5.43;3.72;;;;;;;24.42;35.68;99121.81;5042572;28;20040;-83
2022/05/03 06:17:31;;;;;;;6.57;4.13;;;;;;;24.72;32.90;99149.69;5025641;28;20430;-81
2022/05/03 06:19:58;;;;;;;7.43;4.25;;;;;;;22.85;33.78;99093.47;5024101;28;20519;-81
2022/05/03 06:22:29;;;;;;;4.93;4.05;;;;;;;20.94;34.44;98984.44;5030019;28;20083;-82
2022/05/03 06:24:55;;;;;;;6.60;4.13;;;;;;;20.75;35.74;99108.97;5029192;28;20069;-81
2022/05/03 06:27:21;;;;;;;5.35;3.85;;;;;;;21.54;35.93;99162.22;5040638;28;20036;-79
2022/05/03 06:29:47;;;;;;;5.50;3.85;;;;;;;21.69;35.53;99157.78;5010118;28;20049;-83
2022/05/03 06:32:13;;;;;;;7.35;4.30;;;;;;;23.11;34.88;99147.31;5056678;28;20063;-82
2022/05/03 06:34:40;;;;;;;6.55;4.05;;;;;;;24.23;32.92;99122.41;5031288;28;21031;-81
2022/05/03 06:37:06;;;;;;;9.40;3.75;;;;;;;25.68;31.15;99120.78;5061717;28;20052;-81
2022/05/03 06:39:37;;;;;;;5.45;3.83;;;;;;;26.28;29.57;99104.25;5050108;28;20032;-83
2022/05/03 06:42:07;;;;;;;;;;;;;;;26.50;28.99;99123.72;5027901;28;20098;-82
2022/05/03 06:44:33;;;;;;;8.95;4.05;;;;;;;25.68;29.22;99132.25;5068462;28;20407;-83
2022/05/03 06:47:05;;;;;;;6.93;3.83;;;;;;;25.87;29.86;99120.06;5045315;28;20433;-81
2022/05/03 06:49:38;;;;;;;8.90;4.80;;;;;;;27.25;28.10;99094.09;5041194;28;20075;-81
2022/05/03 06:52:13;;;;;;;8.75;5.03;;;;;;;25.53;27.79;99014.53;5035531;28;20049;-84
2022/05/03 06:54:43;;;;;;;5.82;3.88;;;;;;;25.34;28.55;99110.19;5053570;28;20458;-82
2022/05/03 06:57:09;;;;;;;4.53;3.40;;;;;;;24.98;29.01;99086.44;5051921;28;20143;-81
2022/05/03 06:59:37;;;;;;;4.65;3.20;;;;;;;25.89;28.03;99087.97;5050417;28;20037;-81
2022/05/03 07:02:03;;;;;;;5.80;3.60;;;;;;;25.68;27.93;99088.81;5067192;28;20040;-81
2022/05/03 07:04:30;;;;;;;6.45;3.60;;;;;;;25.11;27.06;99030.41;5051877;28;20036;-79
2022/05/03 07:07:02;;;;;;;10.80;3.72;;;;;;;25.23;27.69;99036.53;5052875;28;20040;-83
2022/05/03 07:09:28;;;;;;;5.68;2.90;;;;;;;27.58;25.84;99100.91;5037036;28;20049;-79
2022/05/03 07:12:01;;;;;;;5.97;3.70;;;;;;;27.23;25.01;99015.94;5073885;28;20043;-83
2022/05/03 07:14:27;;;;;;;7.90;3.90;;;;;;;27.76;24.77;99085.00;5053438;28;20040;-83
2022/05/03 07:16:52;;;;;;;6.43;3.53;;;;;;;26.38;25.14;99072.28;5070110;28;20044;-82
2022/05/03 07:24:51;;;;;;;11.82;2.88;;;;;;;29.71;23.33;99081.63;5052316;28;20040;-82
2022/05/03 07:27:19;;;;;;;8.50;3.00;;;;;;;30.26;22.51;99065.44;5054815;28;20129;-81
2022/05/03 07:29:56;;;;;;;17.25;3.72;;;;;;;30.61;22.26;99072.53;5052456;28;20040;-83
2022/05/03 07:32:22;;;;;;;19.20;3.83;;;;;;;31.03;21.41;99045.81;5035144;28;20519;-82
2022/05/03 07:35:11;;;;;;;12.50;3.22;;;;;;;31.19;20.49;98999.38;5040259;28;20049;-83
2022/05/03 07:37:44;;;;;;;3.72;3.42;;;;;;;32.56;19.93;99053.34;5051894;28;20479;-80
2022/05/03 07:40:28;;;;;;;8.35;3.30;;;;;;;31.69;19.39;99045.91;5066517;28;20053;-80
2022/05/03 07:42:54;;;;;;;6.78;3.05;;;;;;;29.72;20.42;99048.47;5068150;28;20046;-81
2022/05/03 07:45:23;;;;;;;7.25;3.22;;;;;;;27.58;22.13;99065.34;5053170;28;20040;-85
2022/05/03 07:47:57;;;;;;;5.82;3.50;;;;;;;26.27;23.19;99041.22;5040313;28;20100;-80
2022/05/03 07:50:29;;;;;;;4.20;3.13;;;;;;;26.55;23.70;99012.16;5028296;28;20049;-83
2022/05/03 07:52:55;;;;;;;7.28;3.30;;;;;;;27.94;22.47;99020.13;5050730;28;20028;-80
2022/05/03 07:55:21;;;;;;;6.68;3.47;;;;;;;28.33;22.59;99030.72;5070256;28;20041;-81
2022/05/03 07:57:47;;;;;;;6.15;3.15;;;;;;;28.76;21.75;99035.63;5046156;28;20117;-81
2022/05/03 08:00:14;;;;;;;3.95;2.75;;;;;;;30.02;20.77;99026.72;5071360;28;20044;-81
2022/05/03 08:02:44;;;;;;;3.08;2.47;;;;;;;30.39;20.04;98987.19;5079241;28;20079;-81
2022/05/03 08:05:17;;;;;;;10.65;2.95;;;;;;;29.13;20.35;98994.53;5067815;28;20098;-81
2022/05/03 08:07:50;;;;;;;8.73;3.20;;;;;;;28.17;20.71;99003.78;5035940;28;20111;-81
2022/05/03 08:10:16;;;;;;;8.07;3.38;;;;;;;26.96;21.21;98934.72;5051547;28;20144;-81
2022/05/03 08:12:43;;;;;;;5.68;3.00;;;;;;;27.86;20.28;99002.16;5071172;28;20048;-82
2022/05/03 08:15:10;;;;;;;12.40;3.25;;;;;;;26.76;21.81;98993.38;5041241;28;20074;-83
2022/05/03 08:17:36;;;;;;;8.57;2.95;;;;;;;26.99;21.95;98999.38;5080571;28;20068;-81
2022/05/03 08:20:08;;;;;;;13.75;3.05;;;;;;;28.30;20.84;99001.59;5042578;28;20043;-80
2022/05/03 08:22:36;;;;;;;17.25;3.65;;;;;;;28.57;19.42;99007.94;5057069;28;20040;-80
2022/05/03 08:25:03;;;;;;;21.30;3.60;;;;;;;26.67;20.26;98995.06;5070373;28;20040;-82
2022/05/03 08:27:30;;;;;;;37.60;3.95;;;;;;;24.85;20.76;98969.50;5044770;28;20048;-81
2022/05/03 08:29:59;;;;;;;12.52;3.10;;;;;;;23.86;21.72;98995.88;5044748;28;20486;-78
2022/05/03 08:32:25;;;;;;;7.57;2.53;;;;;;;23.49;22.61;98991.56;5054895;28;20067;-82
2022/05/03 08:34:51;;;;;;;49.90;5.53;;;;;;;24.62;22.77;99008.59;5021217;28;20054;-81
2022/05/03 08:42:47;;;;;;;12.07;3.38;;;;;;;27.41;19.31;98981.38;5052190;28;20100;-82
2022/05/03 08:45:14;;;;;;;13.60;3.00;;;;;;;26.35;20.14;98980.09;5051333;28;20059;-81
2022/05/03 08:47:41;;;;;;;11.40;3.25;;;;;;;25.23;21.14;98991.28;5016903;28;20060;-81
2022/05/03 08:50:13;;;;;;;6.13;3.10;;;;;;;26.28;20.47;98993.09;5050409;28;20068;-80
2022/05/03 08:52:49;;;;;;;12.60;4.27;;;;;;;26.33;20.32;98999.84;5033085;28;20044;-79
2022/05/03 08:55:18;;;;;;;8.45;3.10;;;;;;;26.75;19.84;98943.66;5028723;28;20075;-83
2022/05/03 08:57:44;;;;;;;4.70;2.80;;;;;;;27.32;20.28;98978.56;5015673;28;20134;-79
2022/05/03 09:00:14;;;;;;;15.77;3.67;;;;;;;27.65;20.00;98935.53;5038248;28;20096;-82
2022/05/03 09:02:47;;;;;;;23.05;4.63;;;;;;;28.96;18.89;98983.66;5048748;28;20405;-81
2022/05/03 09:05:16;;;;;;;10.43;2.78;;;;;;;29.79;18.49;98954.03;5004420;28;20048;-81
2022/05/03 09:07:53;;;;;;;8.27;2.85;;;;;;;31.11;17.18;98962.56;5047224;28;20063;-83
2022/05/03 09:10:27;;;;;;;15.35;3.90;;;;;;;30.48;16.69;98940.63;5034016;28;20045;-80
2022/05/03 09:13:17;;;;;;;;;;;;;;;29.12;17.59;98966.06;5047910;28;20132;-81
2022/05/03 09:15:50;;;;;;;7.10;3.20;;;;;;;28.99;18.12;98915.59;5009245;28;20291;-83
2022/05/03 09:18:21;;;;;;;8.55;3.03;;;;;;;30.04;17.35;98937.09;5046935;28;20535;-79
2022/05/03 09:23:51;;;;;;;10.35;2.92;;;;;;;30.43;17.32;98916.13;5014078;28;20080;-78
2022/05/03 09:26:23;;;;;;;8.40;3.30;;;;;;;31.84;16.22;98946.59;5048042;28;20052;-79
2022/05/03 09:29:03;;;;;;;7.15;3.28;;;;;;;31.64;15.88;98925.44;5001856;28;20149;-78
2022/05/03 09:31:46;;;;;;;10.10;3.20;;;;;;;31.87;16.00;98915.84;5039770;28;20060;-80
2022/05/03 09:34:17;;;;;;;10.00;3.13;;;;;;;32.26;15.29;98931.16;5066175;28;20302;-79
2022/05/03 09:36:53;;;;;;;8.65;2.95;;;;;;;31.38;15.45;98947.16;5048992;28;20066;-79
2022/05/03 09:39:30;;;;;;;8.90;3.05;;;;;;;30.24;15.83;98927.94;5071292;28;20101;-82
2022/05/03 09:42:37;;;;;;;7.13;2.70;;;;;;;30.52;15.85;98933.94;5082369;28;20055;-79
2022/05/03 09:45:22;;;;;;;9.48;2.72;;;;;;;30.67;15.72;98925.25;5027840;28;20060;-78
2022/05/03 09:47:56;;;;;;;5.35;2.80;;;;;;;30.05;16.00;98929.88;5048850;28;20040;-79
2022/05/03 09:50:52;;;;;;;5.50;2.70;;;;;;;29.01;16.67;98860.06;5054088;28;20100;-80
2022/05/03 09:53:32;;;;;;;7.28;4.20;;;;;;;28.49;16.98;98828.63;5057533;28;20048;-81
2022/05/03 09:56:42;;;;;;;5.20;2.97;;;;;;;27.78;17.68;98916.50;5062743;28;20060;-78
2022/05/03 09:59:09;;;;;;;5.05;2.80;;;;;;;26.42;18.13;98937.72;5059998;28;20482;-80
2022/05/03 10:01:36;;;;;;;5.55;2.70;;;;;;;25.06;18.85;98859.63;5070855;28;20040;-80
2022/05/03 10:04:07;;;;;;;6.78;3.08;;;;;;;25.62;19.27;98893.06;5049149;28;20029;-78
2022/05/03 10:06:33;;;;;;;;;;;;;;;26.16;19.22;98909.72;5049600;28;20040;-81
2022/05/03 10:09:01;;;;;;;4.20;2.55;;;;;;;25.71;18.95;98816.84;5054304;28;19943;-81
2022/05/03 10:11:27;;;;;;;3.05;2.30;;;;;;;25.92;19.29;98895.88;5060220;28;20060;-76
2022/05/03 10:13:54;;;;;;;6.25;2.30;;;;;;;26.24;18.84;98901.06;5051846;28;20044;-79
2022/05/03 10:22:00;;;;;;;8.23;2.30;;;;;;;24.07;19.84;98895.06;5043833;28;20041;-82
2022/05/03 10:24:29;;;;;;;8.65;2.58;;;;;;;24.50;19.94;98888.13;5056554;28;20063;-80
2022/05/03 10:27:03;;;;;;;6.65;2.70;;;;;;;24.81;19.84;98897.09;5020617;28;20041;-81
2022/05/03 10:29:29;;;;;;;4.40;2.50;;;;;;;;;;5028806;28;20048;-81
2022/05/03 10:32:03;;;;;;;4.07;2.28;;;;;;;24.74;20.01;98873.81;5059102;28;20055;-81
2022/05/03 10:34:51;;;;;;;6.95;2.53;;;;;;;24.24;20.34;98892.91;5059372;28;20051;-81
2022/05/03 10:37:28;;;;;;;7.25;2.40;;;;;;;23.66;20.49;98902.66;5043382;28;20040;-79
2022/05/03 10:39:57;;;;;;;7.53;2.30;;;;;;;23.16;20.85;98889.63;5043995;28;20060;-80
2022/05/03 10:42:28;;;;;;;8.30;2.42;;;;;;;23.08;21.66;98886.72;5015974;28;20499;-79
2022/05/03 10:45:11;;;;;;;6.13;2.42;;;;;;;22.76;21.55;98866.94;5051903;28;20040;-81
2022/05/03 10:47:55;;;;;;;8.18;2.20;;;;;;;22.52;22.16;98874.88;5033297;28;20134;-80
2022/05/03 10:50:21;;;;;;;3.53;2.40;;;;;;;22.27;22.53;98877.50;5064976;28;20047;-80
2022/05/03 10:52:59;;;;;;;9.18;2.20;;;;;;;22.16;22.61;98874.78;5049593;28;20044;-80
2022/05/03 10:55:28;;;;;;;11.98;2.65;;;;;;;21.77;22.91;98855.47;5029264;28;20044;-80
2022/05/03 10:58:25;;;;;;;17.35;2.58;;;;;;;21.51;22.91;98879.28;5064532;28;20040;-79
2022/05/03 11:01:21;;;;;;;9.15;2.70;;;;;;;20.91;23.49;98853.31;5027296;28;20036;-84
2022/05/03 11:03:47;;;;;;;5.68;2.83;;;;;;;21.03;23.42;98871.94;5043767;28;20039;-79
2022/05/03 11:06:19;;;;;;;5.55;2.17;;;;;;;21.02;23.46;98875.53;5040985;28;20044;-83
2022/05/03 11:11:43;;;;;;;6.53;2.20;;;;;;;20.59;23.79;98869.44;5043618;28;20148;-79
2022/05/03 11:16:47;;;;;;;4.93;2.03;;;;;;;20.44;23.86;98860.72;5043117;28;20637;-79
2022/05/03 11:19:19;;;;;;;25.00;3.65;;;;;;;20.42;23.86;98854.69;5043239;28;20040;-80
2022/05/03 11:21:47;;;;;;;15.80;3.15;;;;;;;20.26;23.75;98864.56;5061865;28;20037;-81
2022/05/03 11:24:26;;;;;;;8.35;2.22;;;;;;;20.05;24.14;98843.03;5062335;28;20040;-79
2022/05/03 11:26:58;;;;;;;8.65;2.20;;;;;;;19.83;24.23;98825.88;5034270;28;20052;-78
2022/05/03 11:29:32;;;;;;;3.65;2.00;;;;;;;19.85;24.15;98850.38;5054088;28;20052;-78
2022/05/03 11:32:00;;;;;;;7.10;2.20;;;;;;;19.70;24.42;98844.25;5049643;28;20058;-78
2022/05/03 11:34:28;;;;;;;7.93;2.53;;;;;;;19.82;24.42;98843.47;5043398;28;20040;-79
2022/05/03 11:36:54;;;;;;;8.23;2.20;;;;;;;19.93;24.85;98834.09;5060755;28;20036;-80
2022/05/03 11:39:22;;;;;;;7.30;2.20;;;;;;;19.78;24.32;98796.25;5054348;28;20561;-79
2022/05/03 11:41:48;;;;;;;7.68;2.10;;;;;;;19.66;24.43;98817.19;5063858;28;20053;-80
2022/05/03 11:44:16;;;;;;;5.25;2.10;;;;;;;19.47;24.58;98801.66;5063376;28;20043;-81
2022/05/03 11:46:44;;;;;;;4.57;2.30;;;;;;;19.23;24.75;98770.56;5064708;28;20135;-80
2022/05/03 11:49:12;;;;;;;2.92;1.92;;;;;;;19.25;24.92;98784.53;5047807;28;20114;-80
2022/05/03 11:57:48;;;;;;;6.72;2.50;;;;;;;18.17;25.07;98606.53;5066852;28;20510;-83
2022/05/03 12:00:16;;;;;;;11.18;2.58;;;;;;;18.40;24.90;98622.72;5043169;28;20523;-82
2022/05/03 12:02:44;;;;;;;5.95;2.47;;;;;;;19.71;24.94;98809.84;5046983;28;20037;-80
2022/05/03 12:05:19;;;;;;;5.97;2.20;;;;;;;19.77;24.82;98802.47;5046709;28;20037;-83
2022/05/03 12:07:53;;;;;;;9.38;2.28;;;;;;;19.54;24.55;98775.75;5027515;28;20048;-83
2022/05/03 12:10:40;;;;;;;6.90;3.10;;;;;;;19.40;24.76;98755.50;5047807;28;20033;-81
2022/05/03 12:13:31;;;;;;;6.05;2.05;;;;;;;19.42;24.59;98801.09;5048521;28;20056;-80
2022/05/03 12:15:58;;;;;;;12.27;2.23;;;;;;;19.21;24.52;98790.06;5041731;28;20032;-81
2022/05/03 12:18:31;;;;;;;5.15;1.80;;;;;;;19.08;24.59;98774.16;5065309;28;20083;-82
2022/05/03 12:21:08;;;;;;;5.00;2.00;;;;;;;19.10;24.85;98769.63;5036736;28;20095;-80
2022/05/03 12:23:34;;;;;;;6.40;2.10;;;;;;;19.17;24.84;98785.94;5033099;28;20040;-81
2022/05/03 12:26:18;;;;;;;5.05;1.80;;;;;;;18.87;24.91;98763.06;5067743;28;20040;-82
2022/05/03 12:28:55;;;;;;;8.20;2.30;;;;;;;19.01;24.78;98797.38;5048346;28;20050;-83
2022/05/03 12:31:26;;;;;;;12.93;3.00;;;;;;;18.55;24.71;98721.03;5025091;28;20526;-83
2022/05/03 12:33:59;;;;;;;10.40;2.40;;;;;;;18.94;24.86;98786.31;5063347;28;20462;-82
2022/05/03 12:36:27;;;;;;;7.72;2.10;;;;;;;18.82;24.96;98768.63;5061757;28;20040;-81
2022/05/03 12:38:56;;;;;;;9.90;2.40;;;;;;;18.70;24.79;98740.34;5061349;28;20063;-83
2022/05/03 12:41:31;;;;;;;10.10;1.83;;;;;;;18.89;24.89;98753.28;5061221;28;20416;-81
2022/05/03 12:44:04;;;;;;;9.85;2.10;;;;;;;19.07;25.02;98759.28;5062535;28;20047;-83
2022/05/03 12:46:32;;;;;;;10.63;2.70;;;;;;;18.29;24.87;98665.50;5057710;28;20040;-83